createdAt,value
2022-11-21T00:01:28.381Z,98478.00
2022-11-21T00:03:55.206Z,98478.00
2022-11-21T00:06:23.549Z,98471.00
2022-11-21T00:08:50.663Z,98474.00
2022-11-21T00:11:17.755Z,98471.00
2022-11-21T00:13:45.280Z,98469.00
2022-11-21T00:16:15.403Z,98464.00
2022-11-21T00:18:44.122Z,98468.00
2022-11-21T00:21:17.902Z,98468.00
2022-11-21T00:23:46.501Z,98466.00
2022-11-21T00:26:16.329Z,98451.00
2022-11-21T00:28:43.274Z,98449.00
2022-11-21T00:31:19.039Z,98450.00
2022-11-21T00:33:45.801Z,98441.00
2022-11-21T00:36:12.658Z,98442.00
2022-11-21T00:38:39.464Z,98449.00
2022-11-21T00:41:06.648Z,98437.00
2022-11-21T00:43:33.580Z,98441.00
2022-11-21T00:46:02.716Z,98424.00
2022-11-21T00:48:31.748Z,98415.00
2022-11-21T00:51:00.480Z,98412.00
2022-11-21T00:53:28.321Z,98411.00
2022-11-21T00:55:55.624Z,98398.00
2022-11-21T00:58:22.474Z,98405.00
2022-11-21T01:00:49.687Z,98399.00
2022-11-21T01:03:16.964Z,98392.00
2022-11-21T01:05:44.062Z,98391.00
2022-11-21T01:08:10.964Z,98390.00
2022-11-21T01:10:37.852Z,98393.00
2022-11-21T01:13:05.027Z,98407.00
2022-11-21T01:15:31.845Z,98413.00
2022-11-21T01:17:58.651Z,98433.00
2022-11-21T01:20:25.977Z,98426.00
2022-11-21T01:22:52.898Z,98429.00
2022-11-21T01:25:19.810Z,98450.00
2022-11-21T01:27:46.588Z,98457.00
2022-11-21T01:30:14.923Z,98462.00
2022-11-21T01:32:41.746Z,98472.00
2022-11-21T01:35:09.015Z,98435.00
2022-11-21T01:37:35.809Z,98420.00
2022-11-21T01:40:02.794Z,98409.00
2022-11-21T01:42:29.607Z,98413.00
2022-11-21T01:44:56.381Z,98403.00
2022-11-21T01:47:23.663Z,98402.00
2022-11-21T01:49:52.300Z,98389.00
2022-11-21T01:52:31.043Z,98407.00
2022-11-21T01:55:09.308Z,98403.00
2022-11-21T01:57:42.588Z,98400.00
2022-11-21T02:00:23.129Z,98411.00
2022-11-21T02:02:57.960Z,98417.00
2022-11-21T02:05:31.328Z,98412.00
2022-11-21T02:08:09.490Z,98420.00
2022-11-21T02:10:40.162Z,98415.00
2022-11-21T02:13:06.962Z,98402.00
2022-11-21T02:15:33.812Z,98407.00
2022-11-21T02:18:00.634Z,98383.00
2022-11-21T02:20:29.256Z,98388.00
2022-11-21T02:23:17.018Z,98392.00
2022-11-21T02:25:44.711Z,98404.00
2022-11-21T02:28:16.805Z,98394.00
2022-11-21T02:30:44.254Z,98382.00
2022-11-21T02:33:13.120Z,98385.00
2022-11-21T02:35:40.701Z,98366.00
2022-11-21T02:38:22.460Z,98360.00
2022-11-21T02:40:59.377Z,98361.00
2022-11-21T02:43:33.301Z,98366.00
2022-11-21T02:46:00.125Z,98375.00
2022-11-21T02:48:27.127Z,98372.00
2022-11-21T02:50:54.006Z,98368.00
2022-11-21T02:53:20.910Z,98385.00
2022-11-21T02:55:47.934Z,98371.00
2022-11-21T02:58:15.117Z,98376.00
2022-11-21T03:00:43.782Z,98379.00
2022-11-21T03:03:10.775Z,98366.00
2022-11-21T03:05:39.486Z,98364.00
2022-11-21T03:08:07.142Z,98360.00
2022-11-21T03:10:33.923Z,98371.00
2022-11-21T03:13:01.505Z,98366.00
2022-11-21T03:15:34.530Z,98356.00
2022-11-21T03:18:03.120Z,98354.00
2022-11-21T03:20:32.546Z,98349.00
2022-11-21T03:22:59.746Z,98346.00
2022-11-21T03:25:27.025Z,98341.00
2022-11-21T03:27:54.993Z,98353.00
2022-11-21T03:30:26.425Z,98353.00
2022-11-21T03:32:57.009Z,98338.00
2022-11-21T03:35:24.441Z,98341.00
2022-11-21T03:37:51.468Z,98334.00
2022-11-21T03:40:18.513Z,98332.00
2022-11-21T03:42:45.331Z,98342.00
2022-11-21T03:45:12.319Z,98332.00
2022-11-21T03:47:39.258Z,98339.00
2022-11-21T03:50:06.796Z,98341.00
2022-11-21T03:52:33.735Z,98340.00
2022-11-21T03:55:00.593Z,98335.00
2022-11-21T03:57:27.482Z,98347.00
2022-11-21T03:59:54.278Z,98349.00
2022-11-21T04:02:21.094Z,98350.00
2022-11-21T04:04:47.941Z,98339.00
2022-11-21T04:07:14.883Z,98338.00
2022-11-21T04:09:41.695Z,98343.00
2022-11-21T04:12:08.535Z,98348.00
2022-11-21T04:14:35.341Z,98343.00
2022-11-21T04:17:02.173Z,98343.00
2022-11-21T04:19:29.078Z,98346.00
2022-11-21T04:21:55.916Z,98340.00
2022-11-21T04:24:22.841Z,98349.00
2022-11-21T04:26:49.819Z,98340.00
2022-11-21T04:29:16.637Z,98346.00
2022-11-21T04:31:43.607Z,98343.00
2022-11-21T04:34:10.596Z,98338.00
2022-11-21T04:36:37.627Z,98344.00
2022-11-21T04:39:04.715Z,98337.00
2022-11-21T04:41:31.569Z,98333.00
2022-11-21T04:43:58.356Z,98339.00
2022-11-21T04:46:25.149Z,98334.00
2022-11-21T04:48:52.003Z,98342.00
2022-11-21T04:51:18.876Z,98345.00
2022-11-21T04:53:45.743Z,98347.00
2022-11-21T04:56:16.385Z,98351.00
2022-11-21T04:58:44.957Z,98339.00
2022-11-21T05:01:12.427Z,98336.00
2022-11-21T05:03:39.444Z,98338.00
2022-11-21T05:06:06.342Z,98337.00
2022-11-21T05:08:33.400Z,98339.00
2022-11-21T05:11:18.551Z,98344.00
2022-11-21T05:13:45.402Z,98347.00
2022-11-21T05:16:12.312Z,98347.00
2022-11-21T05:18:39.121Z,98351.00
2022-11-21T05:21:05.929Z,98354.00
2022-11-21T05:23:32.717Z,98363.00
2022-11-21T05:25:59.528Z,98357.00
2022-11-21T05:28:26.385Z,98356.00
2022-11-21T05:30:53.351Z,98359.00
2022-11-21T05:33:20.510Z,98349.00
2022-11-21T05:35:47.360Z,98342.00
2022-11-21T05:38:14.283Z,98346.00
2022-11-21T05:40:41.116Z,98353.00
2022-11-21T05:43:29.685Z,98350.00
2022-11-21T05:45:56.482Z,98350.00
2022-11-21T05:48:23.319Z,98353.00
2022-11-21T05:50:50.627Z,98354.00
2022-11-21T05:53:18.206Z,98348.00
2022-11-21T05:55:45.085Z,98356.00
2022-11-21T05:58:12.573Z,98354.00
2022-11-21T06:00:39.590Z,98354.00
2022-11-21T06:03:27.294Z,98348.00
2022-11-21T06:06:07.433Z,98353.00
2022-11-21T06:08:43.150Z,98342.00
2022-11-21T06:11:13.872Z,98341.00
2022-11-21T06:13:41.234Z,98342.00
2022-11-21T06:16:15.431Z,98339.00
2022-11-21T06:18:45.021Z,98345.00
2022-11-21T06:21:21.521Z,98342.00
2022-11-21T06:23:52.536Z,98336.00
2022-11-21T06:26:23.756Z,98342.00
2022-11-21T06:28:51.406Z,98346.00
2022-11-21T06:31:20.505Z,98339.00
2022-11-21T06:33:47.979Z,98341.00
2022-11-21T06:36:17.605Z,98337.00
2022-11-21T06:38:45.733Z,98343.00
2022-11-21T06:41:16.636Z,98337.00
2022-11-21T06:43:43.762Z,98335.00
2022-11-21T06:46:10.949Z,98332.00
2022-11-21T06:48:39.489Z,98333.00
2022-11-21T06:51:16.918Z,98335.00
2022-11-21T06:53:44.008Z,98328.00
2022-11-21T06:56:10.861Z,98334.00
2022-11-21T06:58:37.806Z,98334.00
2022-11-21T07:01:10.483Z,98326.00
2022-11-21T07:03:37.859Z,98329.00
2022-11-21T07:06:06.196Z,98329.00
2022-11-21T07:08:36.429Z,98324.00
2022-11-21T07:13:53.979Z,98327.00
2022-11-21T07:16:20.869Z,98323.00
2022-11-21T07:18:47.766Z,98320.00
2022-11-21T07:21:14.634Z,98315.00
2022-11-21T07:23:41.532Z,98309.00
2022-11-21T07:26:10.663Z,98308.00
2022-11-21T07:28:37.644Z,98309.00
2022-11-21T07:31:10.020Z,98310.00
2022-11-21T07:33:39.924Z,98307.00
2022-11-21T07:36:07.217Z,98302.00
2022-11-21T07:38:34.078Z,98296.00
2022-11-21T07:41:01.044Z,98303.00
2022-11-21T07:43:27.893Z,98303.00
2022-11-21T07:45:55.710Z,98306.00
2022-11-21T07:48:22.513Z,98304.00
2022-11-21T07:50:49.313Z,98300.00
2022-11-21T07:53:16.221Z,98308.00
2022-11-21T07:55:43.029Z,98300.00
2022-11-21T07:58:13.225Z,98306.00
2022-11-21T08:00:42.978Z,98302.00
2022-11-21T08:03:12.387Z,98295.00
2022-11-21T08:05:42.845Z,98293.00
2022-11-21T08:08:13.796Z,98290.00
2022-11-21T08:10:46.958Z,98296.00
2022-11-21T08:13:14.946Z,98285.00
2022-11-21T08:15:42.098Z,98287.00
2022-11-21T08:18:19.112Z,98275.00
2022-11-21T08:20:46.816Z,98273.00
2022-11-21T08:23:13.742Z,98272.00
2022-11-21T08:25:42.797Z,98272.00
2022-11-21T08:28:12.000Z,98265.00
2022-11-21T08:30:40.111Z,98270.00
2022-11-21T08:33:07.437Z,98268.00
2022-11-21T08:35:40.397Z,98252.00
2022-11-21T08:38:07.418Z,98255.00
2022-11-21T08:40:36.380Z,98254.00
2022-11-21T08:43:08.872Z,98246.00
2022-11-21T08:45:37.944Z,98244.00
2022-11-21T08:48:10.772Z,98246.00
2022-11-21T08:50:37.816Z,98235.00
2022-11-21T08:53:04.659Z,98244.00
2022-11-21T08:55:31.567Z,98243.00
2022-11-21T08:57:58.821Z,98238.00
2022-11-21T09:00:26.149Z,98240.00
2022-11-21T09:02:53.234Z,98236.00
2022-11-21T09:05:20.095Z,98224.00
2022-11-21T09:07:48.516Z,98218.00
2022-11-21T09:10:15.921Z,98220.00
2022-11-21T09:12:43.190Z,98214.00
2022-11-21T09:15:30.228Z,98212.00
2022-11-21T09:18:05.119Z,98214.00
2022-11-21T09:20:34.752Z,98210.00
2022-11-21T09:23:10.845Z,98206.00
2022-11-21T09:25:37.981Z,98208.00
2022-11-21T09:28:07.746Z,98197.00
2022-11-21T09:30:35.457Z,98204.00
2022-11-21T09:33:06.683Z,98190.00
2022-11-21T09:35:34.208Z,98168.00
2022-11-21T09:38:01.197Z,98165.00
2022-11-21T09:40:31.265Z,98150.00
2022-11-21T09:43:25.868Z,98147.00
2022-11-21T09:46:10.070Z,98136.00
2022-11-21T09:48:58.809Z,98144.00
2022-11-21T09:51:31.270Z,98143.00
2022-11-21T09:54:19.746Z,98151.00
2022-11-21T09:56:48.615Z,98152.00
2022-11-21T09:59:29.844Z,98144.00
2022-11-21T10:01:57.451Z,98130.00
2022-11-21T10:04:24.460Z,98137.00
2022-11-21T10:07:13.050Z,98121.00
2022-11-21T10:10:11.967Z,98117.00
2022-11-21T10:13:11.276Z,98114.00
2022-11-21T10:16:03.246Z,98113.00
2022-11-21T10:19:07.913Z,98099.00
2022-11-21T10:21:56.595Z,98084.00
2022-11-21T10:24:38.580Z,98080.00
2022-11-21T10:27:15.978Z,98077.00
2022-11-21T10:29:57.808Z,98058.00
2022-11-21T10:32:56.564Z,98052.00
2022-11-21T10:35:39.680Z,98047.00
2022-11-21T10:38:29.081Z,98033.00
2022-11-21T10:41:19.756Z,98022.00
2022-11-21T10:44:17.947Z,98018.00
2022-11-21T10:47:02.037Z,98027.00
2022-11-21T10:49:34.209Z,98006.00
2022-11-21T10:52:25.492Z,97997.00
2022-11-21T10:55:04.518Z,98002.00
2022-11-21T10:57:49.516Z,97997.00
2022-11-21T11:00:24.823Z,98011.00
2022-11-21T11:03:05.517Z,98005.00
2022-11-21T11:05:37.731Z,97991.00
2022-11-21T11:08:08.979Z,97979.00
2022-11-21T11:11:02.109Z,97978.00
2022-11-21T11:13:50.340Z,97959.00
2022-11-21T11:16:21.551Z,97959.00
2022-11-21T11:19:08.644Z,97945.00
2022-11-21T11:21:44.139Z,97943.00
2022-11-21T11:24:10.961Z,97943.00
2022-11-21T11:26:48.675Z,97953.00
2022-11-21T11:29:31.364Z,97945.00
2022-11-21T11:32:04.362Z,97931.00
2022-11-21T11:35:01.093Z,97925.00
2022-11-21T11:37:41.158Z,97919.00
2022-11-21T11:40:23.098Z,97908.00
2022-11-21T11:43:35.282Z,97888.00
2022-11-21T11:47:00.599Z,97886.00
2022-11-21T11:50:00.697Z,97873.00
2022-11-21T11:52:35.481Z,97865.00
2022-11-21T11:55:15.644Z,97866.00
2022-11-21T11:57:44.261Z,97864.00
2022-11-21T12:00:23.104Z,97861.00
2022-11-21T12:03:15.188Z,97851.00
2022-11-21T12:06:11.691Z,97844.00
2022-11-21T12:08:56.634Z,97835.00
2022-11-21T12:12:06.659Z,97834.00
2022-11-21T12:15:13.870Z,97832.00
2022-11-21T12:18:03.043Z,97830.00
2022-11-21T12:21:16.995Z,97813.00
2022-11-21T12:23:58.704Z,97808.00
2022-11-21T12:26:49.760Z,97785.00
2022-11-21T12:29:59.046Z,97785.00
2022-11-21T12:33:13.986Z,97769.00
2022-11-21T12:36:18.262Z,97766.00
2022-11-21T12:39:27.596Z,97753.00
2022-11-21T12:42:50.438Z,97753.00
2022-11-21T12:45:28.840Z,97750.00
2022-11-21T12:48:29.319Z,97749.00
2022-11-21T12:51:44.494Z,97737.00
2022-11-21T12:54:35.621Z,97733.00
2022-11-21T12:57:18.976Z,97735.00
2022-11-21T12:59:57.425Z,97725.00
2022-11-21T13:02:46.034Z,97724.00
2022-11-21T13:05:24.759Z,97709.00
2022-11-21T13:08:03.642Z,97701.00
2022-11-21T13:10:32.282Z,97703.00
2022-11-21T13:13:26.222Z,97709.00
2022-11-21T13:16:05.401Z,97704.00
2022-11-21T13:18:43.330Z,97689.00
2022-11-21T13:21:50.002Z,97685.00
2022-11-21T13:24:45.007Z,97671.00
2022-11-21T13:27:28.090Z,97670.00
2022-11-21T13:30:23.158Z,97655.00
2022-11-21T13:32:55.409Z,97647.00
2022-11-21T13:35:22.119Z,97645.00
2022-11-21T13:38:08.664Z,97635.00
2022-11-21T13:41:07.039Z,97638.00
2022-11-21T13:43:35.019Z,97629.00
2022-11-21T13:46:02.462Z,97620.00
2022-11-21T13:48:34.570Z,97616.00
2022-11-21T13:51:33.082Z,97609.00
2022-11-21T13:54:21.011Z,97597.00
2022-11-21T13:57:08.781Z,97595.00
2022-11-21T14:00:02.873Z,97597.00
2022-11-21T14:03:20.270Z,97589.00
2022-11-21T14:05:59.408Z,97568.00
2022-11-21T14:08:29.211Z,97552.00
2022-11-21T14:10:58.265Z,97547.00
2022-11-21T14:13:37.159Z,97539.00
2022-11-21T14:16:36.561Z,97530.00
2022-11-21T14:19:05.307Z,97512.00
2022-11-21T14:21:34.209Z,97500.00
2022-11-21T14:24:14.720Z,97487.00
2022-11-21T14:26:50.869Z,97474.00
2022-11-21T14:29:40.748Z,97449.00
2022-11-21T14:32:15.169Z,97445.00
2022-11-21T14:34:42.164Z,97433.00
2022-11-21T14:37:12.755Z,97440.00
2022-11-21T14:39:44.409Z,97446.00
2022-11-21T14:42:16.368Z,97440.00
2022-11-21T14:44:44.067Z,97434.00
2022-11-21T14:47:19.871Z,97421.00
2022-11-21T14:49:55.613Z,97414.00
2022-11-21T14:52:32.680Z,97406.00
2022-11-21T14:55:29.062Z,97411.00
2022-11-21T14:57:55.329Z,97425.00
2022-11-21T15:03:31.413Z,97424.00
2022-11-21T15:06:08.142Z,97414.00
2022-11-21T15:11:54.418Z,97407.00
2022-11-21T15:14:44.321Z,97397.00
2022-11-21T15:17:20.606Z,97400.00
2022-11-21T15:20:22.842Z,97410.00
2022-11-21T15:22:54.383Z,97399.00
2022-11-21T15:25:25.295Z,97372.00
2022-11-21T15:28:09.200Z,97358.00
2022-11-21T15:30:38.147Z,97365.00
2022-11-21T15:33:06.644Z,97354.00
2022-11-21T15:35:55.551Z,97352.00
2022-11-21T15:38:24.882Z,97349.00
2022-11-21T15:41:09.407Z,97325.00
2022-11-21T15:43:44.626Z,97303.00
2022-11-21T15:46:24.870Z,97303.00
2022-11-21T15:48:54.206Z,97300.00
2022-11-21T15:51:44.327Z,97296.00
2022-11-21T15:54:21.857Z,97287.00
2022-11-21T15:56:49.153Z,97275.00
2022-11-21T15:59:17.359Z,97275.00
2022-11-21T16:01:44.230Z,97273.00
2022-11-21T16:04:12.662Z,97294.00
2022-11-21T16:06:39.586Z,97301.00
2022-11-21T16:09:06.498Z,97291.00
2022-11-21T16:11:47.115Z,97285.00
2022-11-21T16:14:17.040Z,97276.00
2022-11-21T16:16:47.309Z,97260.00
2022-11-21T16:19:15.648Z,97252.00
2022-11-21T16:21:42.966Z,97242.00
2022-11-21T16:24:10.104Z,97241.00
2022-11-21T16:26:37.042Z,97242.00
2022-11-21T16:29:07.112Z,97237.00
2022-11-21T16:31:45.534Z,97225.00
2022-11-21T16:34:12.352Z,97218.00
2022-11-21T16:36:39.170Z,97208.00
2022-11-21T16:39:11.178Z,97214.00
2022-11-21T16:41:41.190Z,97205.00
2022-11-21T16:44:14.163Z,97206.00
2022-11-21T16:46:48.103Z,97192.00
2022-11-21T16:49:15.509Z,97192.00
2022-11-21T16:51:42.306Z,97198.00
2022-11-21T16:54:09.684Z,97184.00
2022-11-21T16:56:36.940Z,97190.00
2022-11-21T16:59:03.909Z,97197.00
2022-11-21T17:04:25.662Z,97219.00
2022-11-21T17:04:50.713Z,97209.00
2022-11-21T17:06:53.237Z,97234.00
2022-11-21T17:09:20.073Z,97228.00
2022-11-21T17:11:46.957Z,97226.00
2022-11-21T17:14:14.791Z,97228.00
2022-11-21T17:16:42.129Z,97220.00
2022-11-21T17:19:12.258Z,97225.00
2022-11-21T17:21:39.194Z,97222.00
2022-11-21T17:24:06.405Z,97218.00
2022-11-21T17:26:37.765Z,97226.00
2022-11-21T17:29:05.105Z,97224.00
2022-11-21T17:31:32.754Z,97230.00
2022-11-21T17:34:01.079Z,97238.00
2022-11-21T17:36:30.633Z,97244.00
2022-11-21T17:38:57.594Z,97247.00
2022-11-21T17:41:25.970Z,97236.00
2022-11-21T17:43:57.431Z,97241.00
2022-11-21T17:46:25.885Z,97232.00
2022-11-21T17:48:57.434Z,97224.00
2022-11-21T17:51:35.118Z,97233.00
2022-11-21T17:54:02.744Z,97216.00
2022-11-21T17:56:32.041Z,97230.00
2022-11-21T17:58:59.339Z,97215.00
2022-11-21T18:01:27.002Z,97212.00
2022-11-21T18:03:56.994Z,97196.00
2022-11-21T18:06:26.703Z,97193.00
2022-11-21T18:08:53.511Z,97188.00
2022-11-21T18:11:22.236Z,97187.00
2022-11-21T18:13:50.113Z,97199.00
2022-11-21T18:16:20.886Z,97199.00
2022-11-21T18:18:49.782Z,97204.00
2022-11-21T18:21:23.049Z,97212.00
2022-11-21T18:23:52.486Z,97215.00
2022-11-21T18:26:29.871Z,97213.00
2022-11-21T18:29:34.534Z,97200.00
2022-11-21T18:31:46.817Z,97189.00
2022-11-21T18:34:13.709Z,97190.00
2022-11-21T18:36:40.874Z,97195.00
2022-11-21T18:39:14.095Z,97188.00
2022-11-21T18:41:43.152Z,97197.00
2022-11-21T18:44:10.489Z,97202.00
2022-11-21T18:46:38.573Z,97200.00
2022-11-21T18:49:07.293Z,97191.00
2022-11-21T18:51:35.564Z,97191.00
2022-11-21T18:54:10.454Z,97198.00
2022-11-21T18:56:39.540Z,97198.00
2022-11-21T18:59:07.255Z,97194.00
2022-11-21T19:01:37.087Z,97200.00
2022-11-21T19:04:04.347Z,97190.00
2022-11-21T19:06:31.386Z,97200.00
2022-11-21T19:08:59.078Z,97204.00
2022-11-21T19:11:28.903Z,97198.00
2022-11-21T19:13:57.610Z,97197.00
2022-11-21T19:16:27.107Z,97204.00
2022-11-21T19:21:42.868Z,97208.00
2022-11-21T19:24:13.720Z,97205.00
2022-11-21T19:26:41.701Z,97219.00
2022-11-21T19:29:09.573Z,97213.00
2022-11-21T19:31:41.072Z,97211.00
2022-11-21T19:34:12.871Z,97218.00
2022-11-21T19:36:40.035Z,97215.00
2022-11-21T19:39:09.053Z,97198.00
2022-11-21T19:41:36.062Z,97206.00
2022-11-21T19:44:03.616Z,97201.00
2022-11-21T19:46:37.793Z,97198.00
2022-11-21T19:49:06.178Z,97183.00
2022-11-21T19:51:36.941Z,97171.00
2022-11-21T19:54:09.553Z,97179.00
2022-11-21T19:56:37.055Z,97170.00
2022-11-21T19:59:05.015Z,97163.00
2022-11-21T20:01:34.333Z,97163.00
2022-11-21T20:04:05.454Z,97158.00
2022-11-21T20:06:39.913Z,97157.00
2022-11-21T20:09:16.110Z,97140.00
2022-11-21T20:11:46.190Z,97128.00
2022-11-21T20:14:19.594Z,97137.00
2022-11-21T20:16:49.513Z,97129.00
2022-11-21T20:19:19.770Z,97138.00
2022-11-21T20:21:47.446Z,97142.00
2022-11-21T20:24:14.837Z,97142.00
2022-11-21T20:26:42.775Z,97136.00
2022-11-21T20:29:13.574Z,97136.00
2022-11-21T20:31:41.827Z,97129.00
2022-11-21T20:34:12.788Z,97123.00
2022-11-21T20:36:41.122Z,97133.00
2022-11-21T20:39:17.446Z,97130.00
2022-11-21T20:41:46.369Z,97126.00
2022-11-21T20:47:08.472Z,97133.00
2022-11-21T20:49:35.543Z,97128.00
2022-11-21T20:53:43.944Z,97122.00
2022-11-21T20:54:49.322Z,97131.00
2022-11-21T20:57:16.267Z,97113.00
2022-11-21T20:59:43.865Z,97109.00
2022-11-21T21:02:14.196Z,97115.00
2022-11-21T21:04:42.249Z,97118.00
2022-11-21T21:07:09.479Z,97116.00
2022-11-21T21:09:36.469Z,97107.00
2022-11-21T21:12:05.002Z,97116.00
2022-11-21T21:14:31.983Z,97121.00
2022-11-21T21:16:58.825Z,97137.00
2022-11-21T21:19:25.596Z,97123.00
2022-11-21T21:21:52.435Z,97129.00
2022-11-21T21:24:19.265Z,97126.00
2022-11-21T21:26:49.088Z,97125.00
2022-11-21T21:29:20.100Z,97126.00
2022-11-21T21:31:51.743Z,97130.00
2022-11-21T21:34:21.042Z,97119.00
2022-11-21T21:36:48.725Z,97109.00
2022-11-21T21:39:15.632Z,97109.00
2022-11-21T21:41:46.736Z,97108.00
2022-11-21T21:44:14.398Z,97114.00
2022-11-21T21:46:41.317Z,97113.00
2022-11-21T21:49:08.459Z,97112.00
2022-11-21T21:51:37.196Z,97119.00
2022-11-21T21:54:04.630Z,97124.00
2022-11-21T21:56:31.545Z,97126.00
2022-11-21T21:58:59.058Z,97127.00
2022-11-21T22:01:32.360Z,97123.00
2022-11-21T22:04:02.914Z,97130.00
2022-11-21T22:06:33.206Z,97123.00
2022-11-21T22:09:00.642Z,97113.00
2022-11-21T22:11:31.571Z,97111.00
2022-11-21T22:14:05.440Z,97115.00
2022-11-21T22:16:33.025Z,97107.00
2022-11-21T22:19:00.026Z,97108.00
2022-11-21T22:21:32.386Z,97097.00
2022-11-21T22:24:24.718Z,97092.00
2022-11-21T22:26:52.941Z,97103.00
2022-11-21T22:29:19.799Z,97122.00
2022-11-21T22:31:46.678Z,97124.00
2022-11-21T22:34:14.214Z,97112.00
2022-11-21T22:36:41.637Z,97119.00
2022-11-21T22:39:08.977Z,97113.00
2022-11-21T22:41:35.926Z,97124.00
2022-11-21T22:44:02.889Z,97130.00
2022-11-21T22:46:30.840Z,97129.00
2022-11-21T22:48:58.594Z,97139.00
2022-11-21T22:51:29.400Z,97142.00
2022-11-21T22:53:56.927Z,97159.00
2022-11-21T22:56:25.849Z,97150.00
2022-11-21T22:58:52.963Z,97153.00
2022-11-21T23:01:23.217Z,97148.00
2022-11-21T23:03:50.736Z,97153.00
2022-11-21T23:06:24.057Z,97158.00
2022-11-21T23:08:54.163Z,97164.00
2022-11-21T23:11:28.085Z,97158.00
2022-11-21T23:13:56.559Z,97147.00
2022-11-21T23:16:23.911Z,97148.00
2022-11-21T23:18:56.533Z,97140.00
2022-11-21T23:21:23.577Z,97130.00
2022-11-21T23:23:50.487Z,97144.00
2022-11-21T23:26:17.668Z,97149.00
2022-11-21T23:28:44.558Z,97151.00
2022-11-21T23:31:11.447Z,97156.00
2022-11-21T23:33:38.552Z,97134.00
2022-11-21T23:36:05.880Z,97127.00
2022-11-21T23:38:32.690Z,97125.00
2022-11-21T23:40:59.574Z,97117.00
2022-11-21T23:43:26.351Z,97119.00
2022-11-21T23:45:54.445Z,97115.00
2022-11-21T23:48:24.069Z,97122.00
2022-11-21T23:50:51.756Z,97123.00
2022-11-21T23:53:19.580Z,97122.00
2022-11-21T23:55:47.409Z,97129.00
2022-11-21T23:58:15.359Z,97135.00
